createdAt,value
2023-02-13T00:00:09.487Z,22.38
2023-02-13T00:05:12.498Z,22.38
2023-02-13T00:10:16.808Z,22.26
2023-02-13T00:15:19.884Z,22.36
2023-02-13T00:20:22.864Z,22.29
2023-02-13T00:25:26.972Z,22.31
2023-02-13T00:30:29.737Z,22.28
2023-02-13T00:35:32.544Z,22.30
2023-02-13T00:40:36.991Z,22.34
2023-02-13T00:45:39.863Z,22.39
2023-02-13T00:50:42.598Z,22.33
2023-02-13T00:55:47.308Z,22.33
2023-02-13T01:00:52.003Z,22.24
2023-02-13T01:05:54.775Z,22.38
2023-02-13T01:10:59.544Z,22.32
2023-02-13T01:16:02.992Z,22.33
2023-02-13T01:21:07.753Z,22.39
2023-02-13T01:26:18.202Z,22.35
2023-02-13T01:31:21.565Z,22.32
2023-02-13T01:36:27.089Z,22.36
2023-02-13T01:41:32.460Z,22.22
2023-02-13T01:46:39.629Z,22.25
2023-02-13T01:51:43.620Z,22.29
2023-02-13T01:56:51.072Z,22.18
2023-02-13T02:01:55.278Z,22.21
2023-02-13T02:07:05.925Z,22.25
2023-02-13T02:12:19.303Z,22.19
2023-02-13T02:17:25.450Z,22.22
2023-02-13T02:23:19.962Z,22.24
2023-02-13T02:29:02.381Z,22.30
2023-02-13T02:34:22.316Z,22.36
2023-02-13T02:39:35.015Z,22.31
2023-02-13T02:44:46.310Z,22.31
2023-02-13T02:50:02.140Z,22.33
2023-02-13T02:55:12.337Z,22.27
2023-02-13T03:00:46.683Z,22.29
2023-02-13T03:06:14.098Z,22.26
2023-02-13T03:11:34.499Z,22.32
2023-02-13T03:16:54.915Z,22.34
2023-02-13T03:22:20.614Z,22.27
2023-02-13T03:27:53.790Z,22.33
2023-02-13T03:33:09.284Z,22.29
2023-02-13T03:38:19.802Z,22.30
2023-02-13T03:43:23.672Z,22.32
2023-02-13T03:48:48.141Z,22.35
2023-02-13T03:53:57.008Z,22.35
2023-02-13T03:59:17.599Z,22.37
2023-02-13T04:04:27.632Z,22.36
2023-02-13T04:09:33.945Z,22.33
2023-02-13T04:14:40.983Z,22.34
2023-02-13T04:19:43.833Z,22.38
2023-02-13T04:24:48.630Z,22.34
2023-02-13T04:29:51.397Z,22.05
2023-02-13T04:34:54.278Z,22.31
2023-02-13T04:39:58.420Z,22.33
2023-02-13T04:45:01.335Z,22.31
2023-02-13T04:50:04.493Z,22.32
2023-02-13T04:55:09.115Z,22.30
2023-02-13T05:00:12.829Z,22.27
2023-02-13T05:05:15.707Z,22.28
2023-02-13T05:10:20.208Z,22.28
2023-02-13T05:15:23.638Z,22.26
2023-02-13T05:20:26.529Z,22.22
2023-02-13T05:25:31.156Z,22.25
2023-02-13T05:30:33.924Z,22.23
2023-02-13T05:35:36.759Z,22.26
2023-02-13T05:40:40.849Z,22.24
2023-02-13T05:45:43.686Z,22.22
2023-02-13T05:50:47.622Z,22.20
2023-02-13T05:55:52.263Z,22.15
2023-02-13T06:00:57.424Z,22.10
2023-02-13T06:06:01.199Z,22.07
2023-02-13T06:11:05.916Z,22.03
2023-02-13T06:16:09.134Z,21.98
2023-02-13T06:21:12.136Z,21.95
2023-02-13T06:26:16.325Z,21.91
2023-02-13T06:31:19.259Z,21.87
2023-02-13T06:36:22.114Z,21.84
2023-02-13T06:41:26.243Z,21.80
2023-02-13T06:46:29.203Z,21.77
2023-02-13T06:51:32.028Z,21.72
2023-02-13T06:56:36.117Z,21.68
2023-02-13T07:01:38.863Z,21.60
2023-02-13T07:06:41.631Z,21.55
2023-02-13T07:11:45.751Z,21.51
2023-02-13T07:16:48.745Z,21.51
2023-02-13T07:21:51.580Z,21.46
2023-02-13T07:26:55.689Z,21.42
2023-02-13T07:31:58.523Z,21.40
2023-02-13T07:37:01.274Z,21.35
2023-02-13T07:42:05.841Z,21.32
2023-02-13T07:47:08.738Z,21.29
2023-02-13T07:52:11.522Z,21.27
2023-02-13T07:57:15.827Z,21.24
2023-02-13T08:02:18.616Z,21.22
2023-02-13T08:07:21.423Z,21.20
2023-02-13T08:12:25.755Z,21.14
2023-02-13T08:17:28.586Z,21.13
2023-02-13T08:22:31.391Z,21.10
2023-02-13T08:27:35.549Z,21.10
2023-02-13T08:32:53.031Z,21.09
2023-02-13T08:37:56.781Z,21.08
2023-02-13T08:43:06.619Z,21.06
2023-02-13T08:48:09.462Z,21.04
2023-02-13T08:53:12.269Z,21.03
2023-02-13T08:58:16.427Z,21.01
2023-02-13T09:03:19.238Z,21.00
2023-02-13T09:08:22.011Z,20.98
2023-02-13T09:13:26.234Z,17.76
2023-02-13T09:18:29.496Z,16.33
2023-02-13T09:23:33.076Z,15.37
2023-02-13T09:28:37.959Z,17.92
2023-02-13T09:33:41.018Z,18.95
2023-02-13T09:38:44.952Z,19.36
2023-02-13T09:43:52.060Z,19.62
2023-02-13T09:48:57.676Z,19.76
2023-02-13T09:54:02.571Z,20.01
2023-02-13T09:59:21.136Z,20.16
2023-02-13T10:04:32.903Z,20.28
2023-02-13T10:09:41.489Z,20.42
2023-02-13T10:14:55.884Z,20.53
2023-02-13T10:20:03.886Z,20.60
2023-02-13T10:25:13.377Z,20.65
2023-02-13T10:30:23.462Z,20.71
2023-02-13T10:35:30.721Z,20.74
2023-02-13T10:40:41.537Z,20.77
2023-02-13T10:45:58.245Z,20.80
2023-02-13T10:51:08.328Z,20.84
2023-02-13T10:56:26.286Z,20.88
2023-02-13T11:01:35.991Z,20.91
2023-02-13T11:06:43.550Z,20.92
2023-02-13T11:11:46.456Z,20.96
2023-02-13T11:16:57.047Z,20.99
2023-02-13T11:22:04.694Z,21.01
2023-02-13T11:27:12.888Z,21.04
2023-02-13T11:32:24.309Z,21.05
2023-02-13T11:37:30.016Z,21.08
2023-02-13T11:42:36.507Z,21.10
2023-02-13T11:47:43.175Z,21.11
2023-02-13T11:52:57.465Z,21.11
2023-02-13T11:58:02.375Z,21.10
2023-02-13T12:03:26.964Z,21.09
2023-02-13T12:08:30.974Z,21.10
2023-02-13T12:13:38.933Z,21.09
2023-02-13T12:18:47.277Z,21.10
2023-02-13T12:23:58.819Z,21.09
2023-02-13T12:29:17.325Z,18.37
2023-02-13T12:34:58.825Z,16.11
2023-02-13T12:40:24.678Z,16.88
2023-02-13T12:45:38.521Z,18.91
2023-02-13T12:50:58.360Z,19.54
2023-02-13T12:56:27.113Z,19.85
2023-02-13T13:01:52.183Z,20.05
2023-02-13T13:07:30.291Z,20.21
2023-02-13T13:12:51.030Z,20.32
2023-02-13T13:18:05.260Z,20.42
2023-02-13T13:23:15.657Z,20.48
2023-02-13T13:28:23.518Z,20.55
2023-02-13T13:33:28.114Z,20.59
2023-02-13T13:38:43.885Z,20.61
2023-02-13T13:44:04.775Z,20.64
2023-02-13T13:49:19.238Z,20.64
2023-02-13T13:54:35.797Z,20.65
2023-02-13T14:00:01.002Z,20.66
2023-02-13T14:05:11.450Z,20.69
2023-02-13T14:11:03.352Z,20.74
2023-02-13T14:16:10.252Z,20.79
2023-02-13T14:21:17.883Z,20.88
2023-02-13T14:26:31.315Z,20.90
2023-02-13T14:31:39.207Z,20.93
2023-02-13T14:36:46.241Z,20.95
2023-02-13T14:42:01.547Z,20.97
2023-02-13T14:47:13.911Z,20.99
2023-02-13T14:52:21.595Z,21.01
2023-02-13T14:57:30.092Z,21.03
2023-02-13T15:02:38.952Z,21.05
2023-02-13T15:07:48.328Z,21.04
2023-02-13T15:12:59.379Z,21.08
2023-02-13T15:18:08.837Z,21.15
2023-02-13T15:23:24.523Z,21.23
2023-02-13T15:28:28.161Z,21.33
2023-02-13T15:33:38.296Z,21.44
2023-02-13T15:38:42.680Z,21.50
2023-02-13T15:43:48.459Z,21.57
2023-02-13T15:48:51.790Z,21.62
2023-02-13T15:53:58.462Z,21.67
2023-02-13T15:59:02.616Z,21.76
2023-02-13T16:04:10.391Z,21.79
2023-02-13T16:09:27.369Z,21.84
2023-02-13T16:14:31.788Z,21.89
2023-02-13T16:19:42.848Z,21.91
2023-02-13T16:24:51.545Z,21.96
2023-02-13T16:29:59.019Z,22.01
2023-02-13T16:35:27.209Z,22.05
2023-02-13T16:40:42.846Z,22.05
2023-02-13T16:45:45.943Z,21.96
2023-02-13T16:50:56.505Z,22.03
2023-02-13T16:56:03.594Z,22.05
2023-02-13T17:01:06.952Z,22.23
2023-02-13T17:06:11.585Z,22.28
2023-02-13T17:11:20.409Z,22.23
2023-02-13T17:16:23.224Z,22.36
2023-02-13T17:21:25.998Z,22.39
2023-02-13T17:26:30.182Z,22.36
2023-02-13T17:31:33.063Z,22.46
2023-02-13T17:36:36.169Z,22.43
2023-02-13T17:41:43.000Z,22.37
2023-02-13T17:46:45.981Z,22.41
2023-02-13T17:51:48.847Z,22.41
2023-02-13T17:56:53.074Z,22.42
2023-02-13T18:01:55.873Z,22.42
2023-02-13T18:06:59.369Z,22.44
2023-02-13T18:12:06.020Z,22.48
2023-02-13T18:17:09.123Z,22.51
2023-02-13T18:22:12.587Z,22.51
2023-02-13T18:27:17.748Z,22.53
2023-02-13T18:32:20.617Z,22.47
2023-02-13T18:37:23.493Z,22.54
2023-02-13T18:42:28.469Z,22.61
2023-02-13T18:47:31.353Z,22.56
2023-02-13T18:52:35.368Z,22.60
2023-02-13T18:57:43.376Z,22.56
2023-02-13T19:02:46.250Z,22.54
2023-02-13T19:07:49.253Z,22.56
2023-02-13T19:12:53.499Z,22.56
2023-02-13T19:17:57.482Z,22.63
2023-02-13T19:23:00.321Z,22.68
2023-02-13T19:28:05.489Z,22.69
2023-02-13T19:33:08.412Z,22.70
2023-02-13T19:38:11.647Z,22.71
2023-02-13T19:43:15.841Z,22.69
2023-02-13T19:48:18.781Z,22.68
2023-02-13T19:53:21.519Z,22.68
2023-02-13T19:58:25.678Z,22.66
2023-02-13T20:03:28.436Z,22.57
2023-02-13T20:08:31.239Z,22.62
2023-02-13T20:13:35.403Z,22.67
2023-02-13T20:18:39.412Z,22.69
2023-02-13T20:23:43.198Z,22.59
2023-02-13T20:28:47.941Z,22.63
2023-02-13T20:33:52.122Z,22.70
2023-02-13T20:38:56.594Z,22.58
2023-02-13T20:44:02.112Z,22.64
2023-02-13T20:49:05.165Z,22.58
2023-02-13T20:54:08.026Z,22.74
2023-02-13T20:59:12.682Z,22.70
2023-02-13T21:04:19.077Z,22.73
2023-02-13T21:09:21.956Z,22.77
2023-02-13T21:14:26.371Z,22.69
2023-02-13T21:19:31.153Z,22.74
2023-02-13T21:24:33.948Z,22.78
2023-02-13T21:29:39.044Z,22.68
2023-02-13T21:34:43.229Z,22.73
2023-02-13T21:39:46.057Z,22.71
2023-02-13T21:44:50.576Z,22.71
2023-02-13T21:49:53.336Z,22.68
2023-02-13T21:54:56.085Z,22.73
2023-02-13T22:00:02.071Z,22.79
2023-02-13T22:05:15.308Z,22.74
2023-02-13T22:10:18.432Z,22.73
2023-02-13T22:15:22.708Z,22.64
2023-02-13T22:20:26.514Z,22.62
2023-02-13T22:25:29.345Z,22.60
2023-02-13T22:30:33.605Z,22.59
2023-02-13T22:35:38.694Z,22.59
2023-02-13T22:40:41.633Z,22.53
2023-02-13T22:45:45.906Z,22.50
2023-02-13T22:50:48.793Z,22.51
2023-02-13T22:55:51.525Z,22.50
2023-02-13T23:00:55.960Z,22.50
2023-02-13T23:05:58.752Z,22.49
2023-02-13T23:11:24.060Z,22.48
2023-02-13T23:16:49.086Z,22.49
2023-02-13T23:21:52.130Z,22.44
2023-02-13T23:26:54.962Z,22.44
2023-02-13T23:31:59.309Z,22.47
2023-02-13T23:37:02.216Z,22.46
2023-02-13T23:42:05.339Z,22.47
2023-02-13T23:47:09.520Z,22.45
2023-02-13T23:52:12.322Z,22.40
2023-02-13T23:57:15.370Z,22.42
